Time;durP1;ratioP1;P1;durP2;ratioP2;P2;SDS_P1;SDS_P2;PMS_P1;PMS_P2;Temp;Humidity;BMP_temperature;BMP_pressure;BME280_temperature;BME280_humidity;BME280_pressure;Samples;Min_cycle;Max_cycle;Signal;HPM_P1;HPM_P2
2022/10/24 00:00:45;;;;;;;18.10;13.50;;;10.00;99.90;;;;;;10521882;28;20434;-81
2022/10/24 00:06:08;;;;;;;24.73;18.43;;;10.10;99.90;;;;;;10506778;28;20227;-81
2022/10/24 00:11:29;;;;;;;24.97;17.67;;;10.10;99.90;;;;;;10519661;28;20194;-81
2022/10/24 00:16:51;;;;;;;32.07;22.17;;;10.20;99.90;;;;;;10492012;28;20286;-81
2022/10/24 00:22:12;;;;;;;28.87;20.83;;;10.20;99.90;;;;;;10534468;28;20194;-81
2022/10/24 00:27:35;;;;;;;29.50;22.50;;;10.20;99.90;;;;;;10536087;28;20296;-81
2022/10/24 00:32:56;;;;;;;29.47;20.80;;;10.20;99.90;;;;;;10519389;28;20230;-80
2022/10/24 00:38:17;;;;;;;25.50;18.83;;;10.30;99.90;;;;;;10505074;28;20393;-81
2022/10/24 00:43:38;;;;;;;23.67;17.60;;;10.20;99.90;;;;;;10533731;28;20467;-80
2022/10/24 00:49:00;;;;;;;27.13;20.50;;;10.30;99.90;;;;;;10504285;28;20642;-81
2022/10/24 00:54:21;;;;;;;24.57;18.83;;;10.20;99.90;;;;;;10520085;28;20193;-81
2022/10/24 00:59:46;;;;;;;24.87;18.80;;;10.20;99.90;;;;;;10518970;28;20202;-81
2022/10/24 01:05:08;;;;;;;24.40;18.50;;;10.20;99.90;;;;;;10518932;28;20416;-80
2022/10/24 01:10:51;;;;;;;24.80;18.53;;;10.10;99.90;;;;;;10547416;28;20189;-80
2022/10/24 01:16:22;;;;;;;22.83;18.43;;;10.10;99.90;;;;;;10518506;28;20201;-81
2022/10/24 01:21:51;;;;;;;21.53;17.17;;;10.10;99.90;;;;;;10504144;28;20198;-81
2022/10/24 01:27:31;;;;;;;20.30;16.77;;;10.10;99.90;;;;;;10504166;28;20230;-81
2022/10/24 01:33:20;;;;;;;19.67;15.43;;;10.00;99.90;;;;;;10489877;28;20267;-81
2022/10/24 01:38:53;;;;;;;17.33;14.37;;;10.10;99.90;;;;;;10517658;28;20222;-85
2022/10/24 01:44:37;;;;;;;19.03;14.97;;;10.10;99.90;;;;;;10518068;28;20434;-81
2022/10/24 01:50:03;;;;;;;19.40;15.00;;;10.10;99.90;;;;;;10518091;28;20280;-82
2022/10/24 01:55:24;;;;;;;19.83;16.60;;;10.10;99.90;;;;;;10532518;28;20224;-81
2022/10/24 02:00:48;;;;;;;16.77;14.97;;;10.10;99.90;;;;;;10519744;28;20215;-81
2022/10/24 02:06:22;;;;;;;19.27;15.73;;;10.10;99.90;;;;;;10497030;28;20432;-81
2022/10/24 02:11:46;;;;;;;21.23;17.63;;;10.10;99.90;;;;;;10539717;28;20569;-84
2022/10/24 02:17:07;;;;;;;20.33;17.13;;;10.20;99.90;;;;;;10511045;28;20248;-82
2022/10/24 02:22:44;;;;;;;20.00;15.83;;;10.20;99.90;;;;;;10539116;28;20282;-86
2022/10/24 02:28:21;;;;;;;19.97;16.30;;;10.30;99.90;;;;;;10524959;28;20446;-81
2022/10/24 02:33:45;;;;;;;22.60;17.30;;;10.30;99.90;;;;;;10524448;28;20301;-80
2022/10/24 02:39:08;;;;;;;21.83;17.93;;;10.30;99.90;;;;;;10510499;28;20210;-85
2022/10/24 02:44:31;;;;;;;23.20;18.60;;;10.30;99.90;;;;;;10529662;28;20255;-81
2022/10/24 02:49:53;;;;;;;24.60;19.17;;;10.30;99.90;;;;;;10539211;28;20424;-81
2022/10/24 02:55:14;;;;;;;22.67;18.60;;;10.30;99.90;;;;;;10561289;28;20195;-80
2022/10/24 03:00:35;;;;;;;24.57;19.20;;;10.30;99.90;;;;;;10510599;28;20201;-81
2022/10/24 03:05:57;;;;;;;28.37;20.43;;;10.40;99.90;;;;;;10494822;28;20231;-81
2022/10/24 03:11:18;;;;;;;24.33;19.97;;;10.40;99.90;;;;;;10521897;28;20270;-80
2022/10/24 03:16:39;;;;;;;27.10;21.37;;;10.40;99.90;;;;;;10501745;28;20445;-81
2022/10/24 03:22:00;;;;;;;28.63;22.27;;;10.40;99.90;;;;;;10508166;28;20222;-81
2022/10/24 03:27:22;;;;;;;27.33;21.53;;;10.40;99.90;;;;;;10522297;28;20253;-81
2022/10/24 03:32:43;;;;;;;32.90;23.87;;;10.40;99.90;;;;;;10507588;28;20241;-81
2022/10/24 03:38:07;;;;;;;35.13;25.20;;;10.40;99.90;;;;;;10508128;28;20192;-82
2022/10/24 03:43:28;;;;;;;33.97;22.97;;;10.50;99.90;;;;;;10545507;28;20207;-81
2022/10/24 03:48:55;;;;;;;32.80;23.70;;;10.50;99.90;;;;;;10507134;28;20207;-81
2022/10/24 03:54:16;;;;;;;33.57;24.00;;;10.50;99.90;;;;;;10506784;28;20196;-82
2022/10/24 03:59:38;;;;;;;37.23;25.80;;;10.60;99.90;;;;;;10492655;28;20198;-81
2022/10/24 04:04:59;;;;;;;33.93;24.27;;;10.60;99.90;;;;;;10492317;28;20229;-81
2022/10/24 04:10:20;;;;;;;38.87;26.63;;;10.60;99.90;;;;;;10520140;28;20199;-82
2022/10/24 04:15:41;;;;;;;40.50;28.10;;;10.60;99.90;;;;;;10476758;28;20205;-81
2022/10/24 04:21:03;;;;;;;44.57;31.57;;;10.60;99.90;;;;;;10506176;28;20480;-81
2022/10/24 04:26:24;;;;;;;38.17;27.57;;;10.60;99.90;;;;;;10505264;28;20225;-81
2022/10/24 04:31:45;;;;;;;36.43;25.73;;;10.60;99.90;;;;;;10518825;28;20275;-81
2022/10/24 04:37:07;;;;;;;40.40;27.00;;;10.60;99.90;;;;;;10491223;28;20206;-81
2022/10/24 04:42:29;;;;;;;40.20;27.03;;;10.70;99.90;;;;;;10508926;28;20226;-82
2022/10/24 04:47:51;;;;;;;38.07;27.40;;;10.70;99.90;;;;;;10526945;28;20496;-81
2022/10/24 04:53:12;;;;;;;41.63;27.20;;;10.70;99.90;;;;;;10504925;28;20198;-81
2022/10/24 04:58:33;;;;;;;38.93;27.97;;;10.70;99.90;;;;;;10520211;28;20205;-81
2022/10/24 05:03:54;;;;;;;43.40;29.80;;;10.80;99.90;;;;;;10524045;28;20230;-81
2022/10/24 05:09:15;;;;;;;46.63;30.00;;;10.80;99.90;;;;;;10504446;28;20591;-81
2022/10/24 05:14:37;;;;;;;46.33;31.10;;;10.80;99.90;;;;;;10518818;28;20203;-81
2022/10/24 05:19:58;;;;;;;45.53;29.20;;;10.80;99.90;;;;;;10518434;28;20264;-81
2022/10/24 05:25:19;;;;;;;47.93;30.03;;;10.80;99.90;;;;;;10535014;28;20289;-81
2022/10/24 05:30:43;;;;;;;45.87;30.13;;;10.80;99.90;;;;;;10534554;28;20369;-81
2022/10/24 05:36:04;;;;;;;48.20;30.40;;;10.80;99.90;;;;;;10506816;28;20283;-83
2022/10/24 05:41:25;;;;;;;45.77;29.90;;;10.80;99.90;;;;;;10512116;28;20201;-82
2022/10/24 05:46:46;;;;;;;65.97;47.10;;;10.90;99.90;;;;;;10511502;28;20227;-81
2022/10/24 05:52:08;;;;;;;47.40;29.50;;;10.90;99.90;;;;;;10511604;28;20226;-82
2022/10/24 05:57:29;;;;;;;51.43;31.53;;;10.80;99.90;;;;;;10525137;28;20210;-83
2022/10/24 06:02:50;;;;;;;48.37;29.57;;;10.80;99.90;;;;;;10539643;28;20234;-82
2022/10/24 06:08:11;;;;;;;40.70;26.77;;;10.90;99.90;;;;;;10525053;28;20226;-81
2022/10/24 06:13:33;;;;;;;52.37;27.97;;;10.90;99.90;;;;;;10510461;28;20244;-81
2022/10/24 06:18:58;;;;;;;40.70;27.20;;;10.90;99.90;;;;;;10524318;28;20214;-81
2022/10/24 06:24:19;;;;;;;41.17;28.83;;;10.90;99.90;;;;;;10524646;28;20230;-81
2022/10/24 06:29:40;;;;;;;48.63;33.73;;;10.90;99.90;;;;;;10468435;28;20198;-81
2022/10/24 06:35:02;;;;;;;43.40;29.83;;;11.00;99.90;;;;;;10496759;28;20241;-81
2022/10/24 06:40:23;;;;;;;43.47;29.27;;;10.90;99.90;;;;;;10482266;28;20205;-82
2022/10/24 06:45:45;;;;;;;43.30;28.67;;;11.00;99.90;;;;;;10497886;28;20299;-81
2022/10/24 06:51:07;;;;;;;47.83;30.07;;;11.00;99.90;;;;;;10495642;28;20550;-81
2022/10/24 06:56:28;;;;;;;50.53;30.63;;;11.00;99.90;;;;;;10495950;28;20551;-81
2022/10/24 07:01:49;;;;;;;48.53;32.90;;;11.10;99.90;;;;;;10495983;28;20514;-81
2022/10/24 07:07:19;;;;;;;51.93;33.23;;;11.10;99.90;;;;;;10510224;28;20277;-81
2022/10/24 07:12:41;;;;;;;61.20;40.63;;;11.10;99.90;;;;;;10506145;28;20438;-81
2022/10/24 07:18:03;;;;;;;68.97;42.10;;;11.10;99.90;;;;;;10522861;28;20227;-83
2022/10/24 07:23:24;;;;;;;52.90;35.97;;;11.20;99.90;;;;;;10513112;28;20204;-83
2022/10/24 07:28:52;;;;;;;66.37;45.67;;;11.20;99.90;;;;;;10496633;28;20197;-85
2022/10/24 07:34:15;;;;;;;63.57;40.77;;;11.30;99.90;;;;;;10498010;28;20358;-90
2022/10/24 07:39:36;;;;;;;49.77;30.83;;;11.30;99.90;;;;;;10484199;28;20211;-85
2022/10/24 07:44:57;;;;;;;46.50;31.07;;;11.30;99.90;;;;;;10518270;28;20232;-84
2022/10/24 07:50:19;;;;;;;58.03;41.67;;;11.40;99.90;;;;;;10533026;28;20444;-82
2022/10/24 07:55:41;;;;;;;58.37;40.13;;;11.40;99.90;;;;;;10532278;28;20219;-87
2022/10/24 08:01:08;;;;;;;70.33;40.03;;;11.50;99.90;;;;;;10521340;28;20238;-82
2022/10/24 08:06:30;;;;;;;50.60;33.43;;;11.60;99.90;;;;;;10516099;28;20437;-90
2022/10/24 08:11:51;;;;;;;47.40;31.83;;;11.60;99.90;;;;;;10532506;28;20215;-84
2022/10/24 08:17:16;;;;;;;45.83;31.93;;;11.70;99.90;;;;;;10488184;28;20259;-87
2022/10/24 08:22:37;;;;;;;48.50;33.70;;;11.80;99.90;;;;;;10529079;28;20242;-80
2022/10/24 08:27:59;;;;;;;46.30;31.03;;;11.90;99.90;;;;;;10498758;28;20226;-84
2022/10/24 08:33:20;;;;;;;40.00;28.93;;;12.00;99.90;;;;;;10492200;28;20289;-80
2022/10/24 08:38:42;;;;;;;39.63;28.87;;;12.10;99.90;;;;;;10513285;28;20198;-80
2022/10/24 08:44:38;;;;;;;39.73;28.17;;;12.10;99.90;;;;;;10491161;28;20216;-80
2022/10/24 08:50:05;;;;;;;43.03;28.83;;;12.20;99.90;;;;;;10455688;28;20558;-85
2022/10/24 08:55:40;;;;;;;45.37;31.73;;;12.20;99.90;;;;;;10470966;28;20195;-83
2022/10/24 09:01:16;;;;;;;35.97;27.13;;;12.20;99.90;;;;;;10485079;28;20210;-82
2022/10/24 09:06:38;;;;;;;38.77;27.30;;;12.10;99.90;;;;;;10472277;28;20319;-80
2022/10/24 09:12:01;;;;;;;42.70;30.50;;;12.10;99.90;;;;;;10503938;28;20206;-84
2022/10/24 09:17:33;;;;;;;43.50;30.57;;;12.10;99.90;;;;;;10457864;28;20479;-83
2022/10/24 09:22:58;;;;;;;55.50;35.87;;;12.10;99.90;;;;;;10471866;28;20389;-86
2022/10/24 09:28:20;;;;;;;39.43;28.73;;;12.20;99.90;;;;;;10485440;28;20231;-81
2022/10/24 09:33:44;;;;;;;48.53;33.17;;;12.20;99.90;;;;;;10443675;28;20470;-82
2022/10/24 09:39:35;;;;;;;42.53;29.87;;;12.20;99.90;;;;;;10434082;28;20405;-84
2022/10/24 09:44:58;;;;;;;32.83;25.13;;;12.30;99.90;;;;;;10439029;28;20462;-84
2022/10/24 09:50:20;;;;;;;31.33;22.63;;;12.40;99.90;;;;;;10457967;28;20232;-86
2022/10/24 09:55:45;;;;;;;38.73;28.73;;;12.60;99.90;;;;;;10471531;28;20210;-90
2022/10/24 10:01:19;;;;;;;33.23;24.60;;;12.70;99.90;;;;;;10429208;28;20216;-86
2022/10/24 10:06:47;;;;;;;37.17;26.37;;;12.70;99.90;;;;;;10412504;28;20241;-86
2022/10/24 10:12:31;;;;;;;34.97;25.43;;;12.80;99.90;;;;;;10454146;28;20256;-84
2022/10/24 10:17:56;;;;;;;39.60;25.50;;;13.00;99.90;;;;;;10457397;28;20200;-81
2022/10/24 10:23:31;;;;;;;29.67;21.97;;;13.00;99.90;;;;;;10476707;28;20201;-84
2022/10/24 10:29:02;;;;;;;32.87;21.80;;;13.00;99.90;;;;;;10475773;28;20230;-82
2022/10/24 10:34:41;;;;;;;32.90;22.80;;;13.20;99.90;;;;;;10497720;28;20287;-88
2022/10/24 10:40:21;;;;;;;38.03;24.13;;;13.30;99.90;;;;;;10491832;28;20217;-80
2022/10/24 10:45:48;;;;;;;30.43;23.33;;;13.30;99.90;;;;;;10475228;28;20278;-82
2022/10/24 10:51:24;;;;;;;30.30;22.37;;;13.30;99.90;;;;;;10462924;28;20548;-82
2022/10/24 10:56:58;;;;;;;34.90;24.17;;;13.20;99.90;;;;;;10478752;28;20213;-81
2022/10/24 11:02:25;;;;;;;35.30;25.23;;;13.20;99.90;;;;;;10490418;28;20377;-81
2022/10/24 11:08:07;;;;;;;28.40;22.77;;;13.20;99.90;;;;;;10476702;28;20228;-81
2022/10/24 11:13:48;;;;;;;30.27;22.67;;;13.20;99.90;;;;;;10471430;28;20279;-84
2022/10/24 11:19:38;;;;;;;40.37;27.87;;;13.20;99.90;;;;;;10475892;28;20207;-82
2022/10/24 11:25:15;;;;;;;33.17;23.17;;;13.10;99.90;;;;;;10444720;28;20410;-81
2022/10/24 11:30:58;;;;;;;36.83;27.60;;;13.00;99.90;;;;;;10456705;28;20224;-80
2022/10/24 11:36:31;;;;;;;38.07;25.33;;;12.80;99.90;;;;;;10446372;28;20468;-85
2022/10/24 11:42:06;;;;;;;35.77;25.10;;;12.90;99.90;;;;;;10477877;28;20277;-81
2022/10/24 11:47:27;;;;;;;37.57;27.77;;;12.80;99.90;;;;;;10500362;28;20304;-80
2022/10/24 11:52:51;;;;;;;47.47;28.70;;;12.80;99.90;;;;;;10441328;28;20604;-80
2022/10/24 11:58:17;;;;;;;39.33;26.43;;;12.80;99.90;;;;;;10439473;28;20210;-80
2022/10/24 12:03:44;;;;;;;37.93;25.73;;;12.70;99.90;;;;;;10434187;28;20181;-80
2022/10/24 12:09:25;;;;;;;38.40;26.07;;;12.70;99.90;;;;;;10431887;28;20479;-80
2022/10/24 12:15:09;;;;;;;35.17;25.77;;;12.70;99.90;;;;;;10468674;28;20221;-80
2022/10/24 12:20:31;;;;;;;31.80;20.87;;;12.70;99.90;;;;;;10473339;28;20188;-79
2022/10/24 12:26:07;;;;;;;31.03;20.50;;;12.70;99.90;;;;;;10478817;28;20279;-80
2022/10/24 12:31:37;;;;;;;33.90;22.40;;;12.70;99.90;;;;;;10430889;28;20260;-84
2022/10/24 12:37:04;;;;;;;35.90;23.77;;;12.70;99.90;;;;;;10436979;28;20240;-78
2022/10/24 12:42:25;;;;;;;33.77;23.13;;;12.80;99.90;;;;;;10482416;28;20259;-80
2022/10/24 12:47:52;;;;;;;28.30;20.50;;;12.80;99.90;;;;;;10499088;28;20225;-79
2022/10/24 12:53:38;;;;;;;29.57;21.70;;;12.90;99.90;;;;;;10460825;28;20419;-80
2022/10/24 12:59:15;;;;;;;32.77;24.73;;;12.90;99.90;;;;;;10461906;28;20194;-82
2022/10/24 13:04:46;;;;;;;35.47;23.07;;;12.90;99.90;;;;;;10467271;28;20208;-81
2022/10/24 13:10:26;;;;;;;38.73;23.67;;;12.90;99.90;;;;;;10491117;28;20200;-83
2022/10/24 13:16:00;;;;;;;36.57;25.33;;;12.90;99.90;;;;;;10498892;28;20233;-80
2022/10/24 13:21:44;;;;;;;35.67;23.40;;;12.90;99.90;;;;;;10462233;28;20255;-85
2022/10/24 13:27:05;;;;;;;41.90;25.27;;;12.90;99.90;;;;;;10480693;28;20225;-80
2022/10/24 13:32:35;;;;;;;39.13;24.43;;;12.90;99.90;;;;;;10455454;28;20253;-85
2022/10/24 13:37:59;;;;;;;35.63;24.57;;;13.00;99.90;;;;;;10458805;28;20572;-85
2022/10/24 13:43:21;;;;;;;42.77;27.10;;;13.00;99.90;;;;;;10484758;28;20346;-81
2022/10/24 13:48:47;;;;;;;36.27;24.77;;;13.00;99.90;;;;;;10468726;28;20253;-79
2022/10/24 13:54:30;;;;;;;37.50;21.50;;;13.10;99.90;;;;;;10466168;28;20205;-81
2022/10/24 13:59:57;;;;;;;33.50;21.33;;;13.10;99.90;;;;;;10477699;28;20252;-82
2022/10/24 14:05:32;;;;;;;34.13;21.17;;;13.10;99.90;;;;;;10479120;28;20229;-84
2022/10/24 14:10:54;;;;;;;39.53;24.30;;;13.10;99.90;;;;;;10478848;28;20220;-82
2022/10/24 14:16:22;;;;;;;32.27;23.07;;;13.10;99.90;;;;;;10456232;28;20206;-81
2022/10/24 14:21:44;;;;;;;32.60;20.53;;;13.00;99.90;;;;;;10476956;28;20270;-86
2022/10/24 14:27:09;;;;;;;37.90;25.50;;;13.00;99.90;;;;;;10469344;28;20244;-81
2022/10/24 14:32:31;;;;;;;38.03;27.20;;;13.00;99.90;;;;;;10462816;28;20244;-83
2022/10/24 14:37:52;;;;;;;35.27;24.17;;;13.00;99.90;;;;;;10493154;28;20198;-81
2022/10/24 14:43:16;;;;;;;33.37;23.80;;;13.00;99.90;;;;;;10459984;28;20236;-82
2022/10/24 14:48:40;;;;;;;30.37;22.07;;;13.00;99.90;;;;;;10456033;28;20541;-82
2022/10/24 14:54:03;;;;;;;27.50;20.20;;;13.10;99.90;;;;;;10455357;28;20195;-85
2022/10/24 14:59:34;;;;;;;33.93;22.60;;;13.10;99.90;;;;;;10497865;28;20206;-80
2022/10/24 15:05:35;;;;;;;42.43;26.50;;;13.10;99.90;;;;;;10478974;28;20252;-81
2022/10/24 15:11:32;;;;;;;48.97;30.20;;;13.10;99.90;;;;;;10382456;28;20202;-84
2022/10/24 15:16:53;;;;;;;34.53;24.27;;;13.10;99.90;;;;;;10396191;28;20261;-86
2022/10/24 15:22:36;;;;;;;39.70;25.23;;;13.10;99.90;;;;;;10398181;28;20424;-82
2022/10/24 15:27:59;;;;;;;46.37;32.27;;;13.10;99.90;;;;;;10379202;28;20238;-85
2022/10/24 15:33:20;;;;;;;32.50;23.87;;;13.10;99.90;;;;;;10378069;28;20466;-86
2022/10/24 15:38:41;;;;;;;35.83;24.63;;;13.00;99.90;;;;;;10399806;28;20204;-87
2022/10/24 15:44:17;;;;;;;27.53;22.80;;;13.10;99.90;;;;;;10496221;28;20220;-85
2022/10/24 15:49:38;;;;;;;32.73;23.30;;;13.00;99.90;;;;;;10482010;28;20245;-86
2022/10/24 15:54:59;;;;;;;33.13;22.10;;;13.10;99.90;;;;;;10498076;28;20186;-80
2022/10/24 16:00:22;;;;;;;34.10;23.90;;;13.00;99.90;;;;;;10501611;28;20198;-80
2022/10/24 16:05:47;;;;;;;30.30;23.33;;;13.00;99.90;;;;;;10482676;28;20247;-80
2022/10/24 16:11:10;;;;;;;36.57;24.00;;;13.00;99.90;;;;;;10480206;28;20232;-80
2022/10/24 16:16:31;;;;;;;33.53;23.93;;;13.00;99.90;;;;;;10479121;28;20524;-80
2022/10/24 16:21:57;;;;;;;39.97;27.37;;;13.00;99.90;;;;;;10493506;28;20201;-84
2022/10/24 16:27:18;;;;;;;40.87;29.40;;;13.00;99.90;;;;;;10479460;28;20305;-80
2022/10/24 16:32:41;;;;;;;39.97;31.67;;;12.90;99.90;;;;;;10464630;28;20224;-81
2022/10/24 16:38:04;;;;;;;41.03;29.80;;;12.90;99.90;;;;;;10504840;28;20226;-79
2022/10/24 16:43:25;;;;;;;38.37;29.00;;;12.90;99.90;;;;;;10480904;28;20194;-80
2022/10/24 16:48:47;;;;;;;41.17;29.37;;;12.80;99.90;;;;;;10478681;28;20229;-87
2022/10/24 16:54:08;;;;;;;46.50;32.67;;;12.80;99.90;;;;;;10493146;28;20196;-80
2022/10/24 16:59:29;;;;;;;44.47;32.73;;;12.80;99.90;;;;;;10492793;28;20272;-80
2022/10/24 17:04:50;;;;;;;46.67;32.50;;;12.80;99.90;;;;;;10477644;28;20207;-81
2022/10/24 17:10:12;;;;;;;45.20;33.30;;;12.80;99.90;;;;;;10511512;28;20282;-86
2022/10/24 17:15:33;;;;;;;37.90;28.25;;;12.80;99.90;;;;;;10478647;28;20202;-80
2022/10/24 17:20:58;;;;;;;39.07;29.77;;;12.80;99.90;;;;;;10461625;28;20222;-80
2022/10/24 17:26:20;;;;;;;46.63;31.47;;;12.90;99.90;;;;;;10478156;28;20233;-79
2022/10/24 17:31:43;;;;;;;47.03;33.30;;;12.90;99.90;;;;;;10478247;28;20257;-81
2022/10/24 17:37:13;;;;;;;49.43;34.00;;;12.90;99.90;;;;;;10485292;28;20255;-81
2022/10/24 17:42:34;;;;;;;41.33;29.53;;;12.90;99.90;;;;;;10485226;28;20199;-81
2022/10/24 17:47:56;;;;;;;48.13;32.92;;;13.00;99.90;;;;;;10485549;28;20246;-82
2022/10/24 17:53:18;;;;;;;52.93;34.37;;;12.90;99.90;;;;;;10484732;28;20210;-84
2022/10/24 17:58:39;;;;;;;52.33;33.77;;;13.00;99.90;;;;;;10486256;28;20515;-85
2022/10/24 18:04:00;;;;;;;50.73;35.47;;;13.00;99.90;;;;;;10485758;28;20193;-81
2022/10/24 18:09:21;;;;;;;61.50;42.47;;;12.90;99.90;;;;;;10484759;28;20231;-80
2022/10/24 18:14:42;;;;;;;48.57;32.97;;;12.80;99.90;;;;;;10500538;28;20202;-84
2022/10/24 18:20:05;;;;;;;48.67;37.43;;;12.80;99.90;;;;;;10470197;28;20202;-87
2022/10/24 18:25:26;;;;;;;45.03;34.23;;;12.80;99.90;;;;;;10496768;28;20570;-86
2022/10/24 18:30:47;;;;;;;58.17;39.20;;;12.70;99.90;;;;;;10484286;28;20581;-80
2022/10/24 18:36:14;;;;;;;54.40;37.50;;;12.70;99.90;;;;;;10483493;28;20210;-81
2022/10/24 18:41:40;;;;;;;48.37;33.90;;;12.60;99.90;;;;;;10471395;28;20199;-80
2022/10/24 18:47:04;;;;;;;57.60;38.30;;;12.50;99.90;;;;;;10486308;28;20253;-80
2022/10/24 18:52:49;;;;;;;135.15;74.40;;;12.40;99.90;;;;;;10511088;28;20420;-82
2022/10/24 18:58:15;;;;;;;72.87;44.73;;;12.40;99.90;;;;;;10497927;28;20206;-80
2022/10/24 19:03:36;;;;;;;53.33;36.60;;;12.50;99.90;;;;;;10500408;28;20218;-85
2022/10/24 19:08:58;;;;;;;53.47;35.33;;;12.50;99.90;;;;;;10482667;28;20247;-80
2022/10/24 19:14:20;;;;;;;55.10;39.60;;;12.50;99.90;;;;;;10482260;28;20493;-87
2022/10/24 19:19:42;;;;;;;44.03;32.93;;;12.50;99.90;;;;;;10481556;28;20195;-82
2022/10/24 19:25:03;;;;;;;41.37;30.53;;;12.40;99.90;;;;;;10482008;28;20234;-86
2022/10/24 19:30:25;;;;;;;40.07;27.77;;;12.20;99.90;;;;;;10481332;28;20209;-87
2022/10/24 19:35:46;;;;;;;37.90;27.77;;;12.10;99.90;;;;;;10497389;28;20198;-81
2022/10/24 19:41:09;;;;;;;33.83;23.47;;;12.00;99.90;;;;;;10481962;28;20194;-81
2022/10/24 19:46:31;;;;;;;29.63;22.57;;;11.80;99.90;;;;;;10508642;28;20585;-86
2022/10/24 19:51:53;;;;;;;27.13;21.93;;;11.80;99.90;;;;;;10473340;28;20218;-87
2022/10/24 19:57:15;;;;;;;32.87;23.53;;;11.70;99.90;;;;;;10440138;28;20193;-85
2022/10/24 20:02:36;;;;;;;44.33;30.37;;;11.60;99.90;;;;;;10425162;28;20199;-80
2022/10/24 20:07:58;;;;;;;48.13;31.50;;;11.50;99.90;;;;;;10424456;28;20234;-81
2022/10/24 20:13:19;;;;;;;38.23;27.73;;;11.50;99.90;;;;;;10452680;28;20269;-80
2022/10/24 20:18:41;;;;;;;37.27;27.43;;;11.40;99.90;;;;;;10465090;28;20206;-85
2022/10/24 20:24:03;;;;;;;40.37;28.30;;;11.30;99.90;;;;;;10482826;28;20412;-87
2022/10/24 20:29:24;;;;;;;41.50;28.40;;;11.30;99.90;;;;;;10514018;28;20232;-82
2022/10/24 20:34:46;;;;;;;39.67;26.43;;;11.20;99.90;;;;;;10487818;28;20281;-86
2022/10/24 20:40:08;;;;;;;34.00;25.13;;;11.20;99.90;;;;;;10468426;28;20200;-86
2022/10/24 20:45:33;;;;;;;37.70;25.70;;;11.10;99.90;;;;;;10500183;28;20254;-83
2022/10/24 20:51:03;;;;;;;37.03;25.07;;;11.10;99.90;;;;;;10483021;28;20200;-86
2022/10/24 20:56:25;;;;;;;36.93;24.93;;;11.10;99.90;;;;;;10482391;28;20201;-87
2022/10/24 21:01:46;;;;;;;40.70;24.80;;;11.10;99.90;;;;;;10504564;28;20206;-86
2022/10/24 21:07:10;;;;;;;29.90;21.50;;;11.10;99.90;;;;;;10509075;28;20224;-87
2022/10/24 21:12:31;;;;;;;27.33;19.13;;;11.30;99.90;;;;;;10502725;28;20195;-85
2022/10/24 21:17:53;;;;;;;28.23;19.30;;;11.50;99.90;;;;;;10488119;28;20217;-79
2022/10/24 21:23:14;;;;;;;27.27;17.83;;;11.60;99.90;;;;;;10492754;28;20202;-86
2022/10/24 21:28:36;;;;;;;22.50;18.17;;;11.80;99.90;;;;;;10478251;28;20235;-80
2022/10/24 21:33:57;;;;;;;27.23;18.77;;;11.80;99.90;;;;;;10497718;28;20435;-85
2022/10/24 21:39:18;;;;;;;33.73;20.57;;;11.80;99.90;;;;;;10477170;28;20203;-86
2022/10/24 21:44:39;;;;;;;32.30;20.30;;;11.90;99.90;;;;;;10506034;28;20541;-80
2022/10/24 21:50:00;;;;;;;34.40;22.20;;;11.90;99.90;;;;;;10476700;28;20242;-81
2022/10/24 21:55:21;;;;;;;41.73;22.23;;;12.00;99.90;;;;;;10491456;28;20193;-87
2022/10/24 22:00:43;;;;;;;31.07;18.40;;;12.00;99.90;;;;;;10476838;28;20207;-87
2022/10/24 22:06:31;;;;;;;30.10;17.60;;;12.00;99.90;;;;;;10477669;28;20276;-86
2022/10/24 22:11:56;;;;;;;40.33;19.63;;;12.00;99.90;;;;;;10476221;28;20231;-80
2022/10/24 22:17:17;;;;;;;33.90;19.37;;;12.00;99.90;;;;;;10448359;28;20550;-85
2022/10/24 22:22:38;;;;;;;33.67;19.57;;;12.10;99.90;;;;;;10503413;28;20283;-79
2022/10/24 22:27:59;;;;;;;32.63;18.27;;;12.10;99.90;;;;;;10497115;28;20227;-79
2022/10/24 22:33:34;;;;;;;26.63;17.00;;;12.10;99.90;;;;;;10484627;28;20222;-80
2022/10/24 22:38:56;;;;;;;23.47;13.17;;;12.00;99.90;;;;;;10482812;28;20201;-79
2022/10/24 22:44:22;;;;;;;26.00;14.80;;;12.00;99.90;;;;;;10482742;28;20197;-79
2022/10/24 22:50:04;;;;;;;18.87;12.10;;;12.10;99.90;;;;;;10482471;28;20235;-84
2022/10/24 22:55:32;;;;;;;23.37;13.93;;;12.10;99.90;;;;;;10482404;28;20250;-86
2022/10/24 23:01:00;;;;;;;23.87;14.67;;;12.10;99.90;;;;;;10511108;28;20220;-86
2022/10/24 23:06:50;;;;;;;21.27;13.57;;;12.10;99.90;;;;;;10483375;28;20227;-80
2022/10/24 23:12:17;;;;;;;20.23;12.60;;;12.10;99.90;;;;;;10497455;28;20201;-79
2022/10/24 23:17:38;;;;;;;26.17;13.63;;;12.10;99.90;;;;;;10456376;28;20272;-86
2022/10/24 23:23:00;;;;;;;20.37;11.97;;;12.00;99.90;;;;;;10495823;28;20202;-84
2022/10/24 23:28:36;;;;;;;14.97;10.73;;;12.00;99.90;;;;;;10493700;28;20296;-80
2022/10/24 23:33:58;;;;;;;13.27;9.90;;;11.80;99.90;;;;;;10497953;28;20244;-86
2022/10/24 23:39:19;;;;;;;14.77;10.10;;;11.80;99.90;;;;;;10514488;28;20239;-86
2022/10/24 23:44:40;;;;;;;12.60;9.37;;;11.70;99.90;;;;;;10481698;28;20247;-82
2022/10/24 23:50:26;;;;;;;17.47;10.60;;;11.70;99.90;;;;;;10481288;28;20274;-87
2022/10/24 23:55:47;;;;;;;15.20;9.67;;;11.70;99.90;;;;;;10497021;28;20397;-80
